Верхопенье

Карта отелей и гостиниц, располагающихся рядом с аэропортом Верхопенье :



Верхопенье Белгородская область 50° 55' 49.26" N, 36° 21' 37.188" E

Верхопенье Белгородская область 50° 55' 49.26" N, 36° 21' 37.188" E
Код аэродрома ИКАО: 
ZEC5
Код аэродрома RU: 
ЗЕЦ5
Координаты: 
N50.93035° E036.36033°
Превышение над уровнем моря : 
234
Основная полоса: 
13/31
Курс магнитный: 
129,7/309,7
Длина основной ВПП: 
425
Ширина основной ВПП: 
18
Покрытие основной ВПП: 
Твёрдое (асфальт)
Тип: 
Аэродром
Освещение ВПП: 
Нет
Класс аэродрома: 
Статус: 
Недействующий
Принадлежность: 
ГА
Сайт: 
E-mail аэродрома: 
Страна: 
Россия
Регион: 
Белгородская область
Город: 
Дополнительная информация: 
Бывшая площадка АХР.

Найти трансфер

С помощью этой формы Вы можете найти трансфер из аэропорта Верхопенье в город, аэропорт или вокзал:

Карта места

Javascript is required to view this map.

Погода в аэропортах:

Авиационная погода в Грозном

Регион: 
Погода METAR: 
URMG 042300Z 31004MPS 9999 -SHRA SCT///CB BKN/// 17/14 Q1014 R08/090070 NOSIG RMK QFE746/0995
Время наблюдения: 
2020-06-04T23:00:00Z
Температура C: 
17.0
Точка росы: 
14.0
Направление ветра: 
310
Скорость ветра: 
8
Метеорологическая видимость: 
6.21
Явления погоды: 
-SHRA
Аэропорт подробнее: 

Авиационная погода в Миккели

Регион: 
Погода METAR: 
EFMI 042250Z AUTO 02004KT 280V090 6000 -SHRA OVC005 ///// Q////
Время наблюдения: 
2020-06-04T22:50:00Z
Направление ветра: 
20
Скорость ветра: 
4
Метеорологическая видимость: 
3.73
Явления погоды: 
-SHRA
Условия полета: 
IFR

Авиационная погода в Краснодаре

Регион: 
Погода METAR: 
URKK 042300Z 26002MPS 5000 BR NSC 14/13 Q1017 R23L/CLRD70 TEMPO 0200 FG OVC002 RMK QFE760
Время наблюдения: 
2020-06-04T23:00:00Z
Температура C: 
14.0
Точка росы: 
13.0
Направление ветра: 
260
Скорость ветра: 
4
Метеорологическая видимость: 
3.11
Явления погоды: 
BR
Условия полета: 
MVFR
Аэропорт подробнее: 

Авиационная погода в Самаре

Регион: 
Погода METAR: 
UWWW 042300Z 16002MPS 1200 0350NE R15/0350N FG VV003 16/16 Q1015 R15/250050 NOSIG RMK QFE750/1000
Время наблюдения: 
2020-06-04T23:00:00Z
Температура C: 
16.0
Точка росы: 
16.0
Направление ветра: 
160
Скорость ветра: 
4
Метеорологическая видимость: 
0.75
Явления погоды: 
FG
Условия полета: 
LIFR
Аэропорт подробнее: